Time;durP1;ratioP1;P1;durP2;ratioP2;P2;SDS_P1;SDS_P2;PMS_P1;PMS_P2;Temp;Humidity;BMP_temperature;BMP_pressure;BME280_temperature;BME280_humidity;BME280_pressure;Samples;Min_cycle;Max_cycle;Signal;HPM_P1;HPM_P2
2021/05/16 00:01:08;;;;;;;4.38;2.05;;;16.80;99.90;;;;;;5033618;28;20014;-81
2021/05/16 00:03:35;;;;;;;4.53;2.03;;;16.70;99.90;;;;;;5018513;28;20033;-80
2021/05/16 00:06:01;;;;;;;5.93;1.63;;;16.70;99.90;;;;;;5036084;28;20026;-80
2021/05/16 00:08:27;;;;;;;3.78;1.10;;;16.70;99.90;;;;;;5035727;28;20050;-80
2021/05/16 00:10:54;;;;;;;6.03;1.70;;;16.70;99.90;;;;;;5018271;28;20504;-77
2021/05/16 00:13:21;;;;;;;6.00;1.50;;;16.70;99.90;;;;;;5036033;28;20283;-80
2021/05/16 00:15:46;;;;;;;8.82;1.33;;;16.60;99.90;;;;;;5042351;28;20549;-77
2021/05/16 00:18:13;;;;;;;10.00;1.80;;;16.70;99.90;;;;;;5046550;28;20025;-76
2021/05/16 00:20:38;;;;;;;7.93;1.33;;;16.60;99.90;;;;;;5035628;28;20112;-77
2021/05/16 00:23:05;;;;;;;4.13;1.50;;;16.70;99.90;;;;;;5035619;28;20113;-77
2021/05/16 00:25:33;;;;;;;13.02;3.72;;;16.60;99.90;;;;;;5035960;28;20021;-76
2021/05/16 00:27:59;;;;;;;7.65;2.17;;;16.60;99.90;;;;;;5035799;28;20502;-81
2021/05/16 00:30:26;;;;;;;5.30;1.25;;;16.70;99.90;;;;;;5035482;28;20509;-81
2021/05/16 00:32:55;;;;;;;6.78;1.77;;;16.70;99.90;;;;;;5035611;28;20041;-76
2021/05/16 00:35:24;;;;;;;15.50;1.83;;;16.60;99.90;;;;;;5035302;28;20030;-80
2021/05/16 00:37:51;;;;;;;4.50;1.50;;;16.60;99.90;;;;;;5035669;28;20064;-80
2021/05/16 00:40:18;;;;;;;7.43;2.20;;;16.60;99.90;;;;;;5035409;28;20022;-80
2021/05/16 00:42:45;;;;;;;6.50;1.05;;;16.50;99.90;;;;;;5035305;28;20026;-81
2021/05/16 00:45:13;;;;;;;8.23;1.75;;;16.50;99.90;;;;;;5035265;28;20383;-81
2021/05/16 00:47:44;;;;;;;8.52;2.00;;;16.40;99.90;;;;;;5017464;28;20041;-81
2021/05/16 00:50:11;;;;;;;13.73;1.85;;;16.40;99.90;;;;;;5017455;28;20029;-76
2021/05/16 00:52:41;;;;;;;4.88;1.40;;;16.40;99.90;;;;;;5017492;28;20104;-76
2021/05/16 00:55:09;;;;;;;8.93;1.83;;;16.30;99.90;;;;;;5017523;28;20057;-81
2021/05/16 00:57:36;;;;;;;6.97;1.10;;;16.30;99.90;;;;;;5017444;28;20390;-81
2021/05/16 01:00:07;;;;;;;5.80;1.27;;;16.20;99.90;;;;;;5034933;28;20021;-79
2021/05/16 01:02:34;;;;;;;5.05;1.00;;;16.20;99.90;;;;;;5017194;28;20120;-80
2021/05/16 01:05:01;;;;;;;3.60;1.17;;;15.90;99.90;;;;;;5017089;28;20025;-81
2021/05/16 01:07:27;;;;;;;7.03;1.95;;;15.80;99.90;;;;;;5034776;28;20069;-81
2021/05/16 01:09:54;;;;;;;3.55;1.13;;;15.70;99.90;;;;;;5017256;28;20053;-81
2021/05/16 01:12:21;;;;;;;5.38;1.35;;;15.80;99.90;;;;;;5016316;28;20119;-81
2021/05/16 01:14:48;;;;;;;5.05;1.23;;;15.80;99.90;;;;;;5034764;28;20040;-77
2021/05/16 01:17:14;;;;;;;5.38;1.70;;;15.70;99.90;;;;;;5034757;28;20029;-81
2021/05/16 01:19:42;;;;;;;3.65;1.30;;;15.80;99.90;;;;;;5034686;28;20021;-81
2021/05/16 01:22:08;;;;;;;9.05;1.92;;;15.80;99.90;;;;;;5034603;28;20021;-81
2021/05/16 01:24:37;;;;;;;3.00;1.30;;;15.80;99.90;;;;;;5016996;28;20029;-81
2021/05/16 01:27:10;;;;;;;3.25;1.75;;;15.80;99.90;;;;;;5037772;28;20034;-77
2021/05/16 01:29:36;;;;;;;2.80;1.45;;;15.70;99.90;;;;;;5032231;28;20441;-81
2021/05/16 01:32:04;;;;;;;8.50;2.10;;;15.70;99.90;;;;;;5016720;28;20029;-76
2021/05/16 01:34:30;;;;;;;3.33;1.52;;;15.70;99.90;;;;;;5034510;28;20030;-76
2021/05/16 01:36:56;;;;;;;7.20;2.10;;;15.50;99.90;;;;;;5034472;28;20120;-76
2021/05/16 01:39:22;;;;;;;8.02;2.08;;;15.50;99.90;;;;;;5016448;28;20501;-79
2021/05/16 01:41:48;;;;;;;5.95;1.50;;;15.40;99.90;;;;;;5034245;28;20040;-81
2021/05/16 01:44:15;;;;;;;4.93;1.20;;;15.20;99.90;;;;;;5016396;28;20025;-76
2021/05/16 01:46:45;;;;;;;6.68;2.67;;;15.10;99.90;;;;;;5034321;28;20037;-81
2021/05/16 01:49:11;;;;;;;4.55;1.80;;;15.00;99.90;;;;;;5034108;28;20449;-80
2021/05/16 01:51:37;;;;;;;8.95;1.85;;;14.90;99.90;;;;;;5034071;28;20505;-81
2021/05/16 01:54:05;;;;;;;5.32;1.85;;;14.90;99.90;;;;;;5016130;28;20032;-80
2021/05/16 01:56:34;;;;;;;7.75;1.67;;;15.00;99.90;;;;;;5033845;28;20026;-81
2021/05/16 01:59:00;;;;;;;4.07;1.52;;;14.90;99.90;;;;;;5034024;28;20037;-76
2021/05/16 02:01:29;;;;;;;4.13;1.95;;;14.90;99.90;;;;;;5016138;28;20022;-81
2021/05/16 02:03:59;;;;;;;8.45;1.45;;;14.90;99.90;;;;;;5016139;28;20033;-81
2021/05/16 02:06:26;;;;;;;4.15;1.83;;;14.90;99.90;;;;;;5033673;28;20022;-76
2021/05/16 02:08:56;;;;;;;4.40;1.60;;;14.90;99.90;;;;;;5033558;28;20107;-78
2021/05/16 02:11:29;;;;;;;5.35;2.50;;;14.80;99.90;;;;;;5016065;28;20042;-76
2021/05/16 02:14:03;;;;;;;11.10;1.80;;;14.90;99.90;;;;;;5015777;28;20052;-77
2021/05/16 02:16:31;;;;;;;6.80;2.03;;;14.90;99.90;;;;;;5015822;28;20045;-77
2021/05/16 02:19:04;;;;;;;14.45;2.05;;;14.90;99.90;;;;;;5015809;28;20437;-81
2021/05/16 02:21:34;;;;;;;10.82;3.40;;;15.00;99.90;;;;;;5015818;28;20057;-81
2021/05/16 02:23:59;;;;;;;13.03;2.33;;;14.90;99.90;;;;;;5032713;28;20057;-81
2021/05/16 02:26:46;;;;;;;8.93;2.50;;;14.80;99.90;;;;;;5032828;28;20080;-81
2021/05/16 02:29:14;;;;;;;12.77;2.58;;;14.90;99.90;;;;;;5033505;28;20033;-81
2021/05/16 02:31:41;;;;;;;10.02;2.30;;;14.80;99.90;;;;;;5033481;28;20032;-81
2021/05/16 02:34:07;;;;;;;9.32;2.67;;;14.70;99.90;;;;;;5015622;28;20037;-81
2021/05/16 02:36:36;;;;;;;7.90;3.10;;;14.80;99.90;;;;;;5015720;28;20439;-81
2021/05/16 02:39:04;;;;;;;9.75;2.90;;;14.80;99.90;;;;;;5021443;28;20068;-79
2021/05/16 02:41:32;;;;;;;6.57;2.65;;;14.80;99.90;;;;;;5027746;28;20025;-81
2021/05/16 02:43:59;;;;;;;6.50;2.50;;;14.70;99.90;;;;;;5015394;28;20060;-81
2021/05/16 02:46:25;;;;;;;6.65;2.80;;;14.70;99.90;;;;;;4999075;28;20379;-81
2021/05/16 02:48:52;;;;;;;4.63;1.90;;;14.70;99.90;;;;;;5033043;28;20044;-81
2021/05/16 02:51:20;;;;;;;5.88;1.90;;;14.60;99.90;;;;;;5015313;28;20116;-80
2021/05/16 02:53:48;;;;;;;3.97;1.90;;;14.60;99.90;;;;;;5015347;28;20140;-81
2021/05/16 02:56:16;;;;;;;7.00;2.47;;;14.60;99.90;;;;;;5033055;28;20075;-80
2021/05/16 02:58:43;;;;;;;10.70;2.67;;;14.60;99.90;;;;;;5033159;28;20038;-81
2021/05/16 03:01:13;;;;;;;4.82;2.60;;;14.60;99.90;;;;;;5014981;28;20482;-81
2021/05/16 03:03:45;;;;;;;7.78;2.90;;;14.60;99.90;;;;;;5015072;28;20072;-76
2021/05/16 03:06:12;;;;;;;4.20;2.45;;;14.60;99.90;;;;;;5014931;28;20067;-76
2021/05/16 03:08:39;;;;;;;7.25;2.47;;;14.60;99.90;;;;;;5014787;28;20057;-79
2021/05/16 03:11:06;;;;;;;4.72;2.40;;;14.60;99.90;;;;;;5014881;28;20075;-80
2021/05/16 03:13:32;;;;;;;6.05;2.25;;;14.60;99.90;;;;;;5014975;28;20033;-81
2021/05/16 03:16:03;;;;;;;15.57;2.90;;;14.60;99.90;;;;;;5014890;28;20029;-78
2021/05/16 03:18:30;;;;;;;5.60;3.33;;;14.60;99.90;;;;;;5032516;28;20033;-76
2021/05/16 03:20:56;;;;;;;8.40;2.38;;;14.60;99.90;;;;;;5014822;28;20025;-81
2021/05/16 03:23:22;;;;;;;6.90;2.40;;;14.60;99.90;;;;;;5014923;28;20044;-80
2021/05/16 03:25:48;;;;;;;14.75;3.50;;;14.60;99.90;;;;;;5032512;28;20032;-80
2021/05/16 03:28:15;;;;;;;9.73;2.67;;;14.60;99.90;;;;;;5032539;28;20501;-81
2021/05/16 03:30:41;;;;;;;4.97;2.90;;;14.60;99.90;;;;;;5032574;28;20021;-81
2021/05/16 03:33:07;;;;;;;4.97;2.53;;;14.70;99.90;;;;;;5032355;28;20029;-81
2021/05/16 03:35:33;;;;;;;8.88;3.03;;;14.60;99.90;;;;;;5033151;28;20051;-81
2021/05/16 03:37:59;;;;;;;7.55;3.03;;;14.60;99.90;;;;;;5036807;28;20029;-79
2021/05/16 03:40:25;;;;;;;9.63;3.22;;;14.70;99.90;;;;;;5036523;28;20556;-81
2021/05/16 03:42:51;;;;;;;4.85;2.35;;;14.60;99.90;;;;;;5036404;28;20528;-78
2021/05/16 03:45:17;;;;;;;6.55;2.22;;;14.70;99.90;;;;;;5036302;28;20025;-81
2021/05/16 03:47:43;;;;;;;5.10;2.22;;;14.70;99.90;;;;;;5036454;28;20037;-80
2021/05/16 03:50:11;;;;;;;7.20;2.95;;;14.70;99.90;;;;;;5037313;28;20099;-76
2021/05/16 03:52:39;;;;;;;9.45;2.80;;;14.70;99.90;;;;;;5054295;28;20466;-77
2021/05/16 03:55:07;;;;;;;14.57;2.78;;;14.70;99.90;;;;;;5036448;28;20033;-81
2021/05/16 03:57:33;;;;;;;5.97;2.50;;;14.70;99.90;;;;;;5036172;28;20049;-80
2021/05/16 03:59:59;;;;;;;6.32;2.25;;;14.70;99.90;;;;;;5036033;28;20025;-81
2021/05/16 04:02:25;;;;;;;5.70;3.05;;;14.70;99.90;;;;;;5036139;28;20032;-81
2021/05/16 04:04:51;;;;;;;9.80;2.50;;;14.80;99.90;;;;;;5018429;28;20034;-81
2021/05/16 04:07:17;;;;;;;6.22;2.25;;;14.80;99.90;;;;;;5035738;28;20053;-81
2021/05/16 04:09:43;;;;;;;9.63;3.38;;;14.80;99.90;;;;;;5036054;28;20061;-81
2021/05/16 04:12:09;;;;;;;8.13;3.50;;;14.80;99.90;;;;;;5035959;28;20026;-81
2021/05/16 04:14:35;;;;;;;7.03;2.33;;;14.80;99.90;;;;;;5035986;28;20695;-77
2021/05/16 04:17:01;;;;;;;6.70;2.85;;;14.80;99.90;;;;;;5035724;28;20105;-76
2021/05/16 04:19:27;;;;;;;5.60;2.70;;;14.80;99.90;;;;;;5035806;28;20104;-76
2021/05/16 04:21:53;;;;;;;6.43;2.72;;;14.80;99.90;;;;;;5035842;28;20033;-76
2021/05/16 04:24:19;;;;;;;8.45;3.58;;;14.80;99.90;;;;;;5035754;28;20037;-81
2021/05/16 04:26:45;;;;;;;7.15;2.75;;;14.70;99.90;;;;;;5035658;28;20548;-78
2021/05/16 04:29:11;;;;;;;8.32;2.67;;;14.70;99.90;;;;;;5035456;28;20033;-81
2021/05/16 04:31:38;;;;;;;5.18;2.88;;;14.80;99.90;;;;;;5035452;28;20057;-81
2021/05/16 04:34:04;;;;;;;5.68;2.97;;;14.80;99.90;;;;;;5035738;28;20025;-81
2021/05/16 04:36:30;;;;;;;15.40;3.92;;;14.80;99.90;;;;;;5035523;28;20029;-77
2021/05/16 04:38:56;;;;;;;4.88;1.83;;;14.90;99.90;;;;;;5035548;28;20025;-76
2021/05/16 04:41:22;;;;;;;6.18;2.42;;;14.90;99.90;;;;;;5035244;28;20025;-81
2021/05/16 04:43:49;;;;;;;4.30;2.58;;;14.90;99.90;;;;;;5035444;28;20022;-81
2021/05/16 04:46:15;;;;;;;4.68;2.13;;;14.90;99.90;;;;;;5035511;28;20477;-79
2021/05/16 04:48:41;;;;;;;3.95;1.95;;;14.90;99.90;;;;;;5033996;28;20136;-79
2021/05/16 04:51:07;;;;;;;4.88;2.40;;;15.00;99.90;;;;;;5017387;28;20026;-79
2021/05/16 04:53:36;;;;;;;4.15;2.10;;;15.10;99.90;;;;;;5035401;28;20025;-81
2021/05/16 04:56:03;;;;;;;13.38;3.30;;;15.30;99.90;;;;;;5035327;28;20025;-79
2021/05/16 04:58:29;;;;;;;4.63;1.83;;;15.30;99.90;;;;;;5035154;28;20033;-76
2021/05/16 05:00:56;;;;;;;8.95;2.20;;;15.40;99.90;;;;;;5035796;28;20409;-76
2021/05/16 05:03:24;;;;;;;6.57;1.63;;;15.40;99.90;;;;;;5048822;28;20037;-77
2021/05/16 05:05:54;;;;;;;3.75;1.15;;;15.50;99.90;;;;;;5039475;28;20087;-81
2021/05/16 05:08:21;;;;;;;7.35;2.15;;;15.60;99.90;;;;;;5034695;28;20049;-81
2021/05/16 05:10:47;;;;;;;3.90;2.50;;;15.70;99.90;;;;;;5017165;28;20035;-82
2021/05/16 05:13:14;;;;;;;4.18;2.17;;;15.70;99.90;;;;;;5034907;28;20084;-81
2021/05/16 05:15:40;;;;;;;8.40;2.55;;;15.80;99.90;;;;;;5034930;28;20097;-81
2021/05/16 05:18:06;;;;;;;4.18;1.50;;;15.90;99.90;;;;;;5034899;28;20112;-81
2021/05/16 05:20:32;;;;;;;4.53;1.60;;;16.00;99.90;;;;;;5034728;28;20033;-81
2021/05/16 05:23:00;;;;;;;3.00;1.10;;;16.00;99.90;;;;;;5034792;28;20498;-81
2021/05/16 05:25:29;;;;;;;8.32;1.25;;;16.00;99.90;;;;;;5034617;28;20022;-81
2021/05/16 05:27:55;;;;;;;4.47;1.10;;;16.00;99.90;;;;;;5034506;28;20053;-81
2021/05/16 05:30:25;;;;;;;3.00;1.35;;;16.00;99.90;;;;;;5034433;28;20124;-77
2021/05/16 05:32:52;;;;;;;3.92;1.00;;;16.00;99.90;;;;;;5034706;28;20104;-81
2021/05/16 05:35:18;;;;;;;0.77;0.70;;;16.00;99.90;;;;;;5016767;28;20418;-78
2021/05/16 05:37:44;;;;;;;2.45;1.00;;;16.10;99.90;;;;;;5034470;28;20501;-81
2021/05/16 05:40:11;;;;;;;2.92;0.73;;;16.10;99.90;;;;;;5034268;28;20026;-81
2021/05/16 05:42:38;;;;;;;3.60;1.05;;;16.20;99.90;;;;;;5034604;28;20025;-81
2021/05/16 05:45:06;;;;;;;4.90;0.98;;;16.30;99.90;;;;;;5034413;28;20101;-81
2021/05/16 05:47:32;;;;;;;2.13;0.77;;;16.40;99.90;;;;;;5034181;28;20044;-81
2021/05/16 05:49:58;;;;;;;1.60;0.98;;;16.40;99.90;;;;;;5034341;28;20027;-81
2021/05/16 05:52:24;;;;;;;1.80;0.85;;;16.50;99.90;;;;;;5034012;28;20032;-81
2021/05/16 05:54:50;;;;;;;2.35;1.20;;;16.60;99.90;;;;;;5033983;28;20044;-82
2021/05/16 05:57:16;;;;;;;1.63;0.80;;;16.60;99.90;;;;;;5016094;28;20067;-80
2021/05/16 05:59:42;;;;;;;4.57;1.30;;;16.60;99.90;;;;;;5033754;28;20108;-81
2021/05/16 06:02:09;;;;;;;4.25;1.08;;;16.80;99.90;;;;;;5033786;28;20112;-81
2021/05/16 06:04:35;;;;;;;5.20;1.73;;;16.80;99.90;;;;;;5016376;28;20025;-82
2021/05/16 06:07:01;;;;;;;8.45;2.10;;;16.90;99.90;;;;;;5033662;28;20063;-81
2021/05/16 06:09:27;;;;;;;1.35;0.77;;;17.00;99.90;;;;;;5033741;28;20490;-82
2021/05/16 06:11:54;;;;;;;1.63;0.80;;;17.00;99.90;;;;;;5033895;28;20033;-82
2021/05/16 06:14:20;;;;;;;2.22;0.93;;;17.10;99.90;;;;;;5021773;28;20033;-79
2021/05/16 06:16:46;;;;;;;6.35;0.88;;;17.10;99.90;;;;;;5046627;28;20022;-81
2021/05/16 06:19:12;;;;;;;2.40;0.73;;;17.20;99.90;;;;;;5033636;28;20025;-81
2021/05/16 06:21:38;;;;;;;3.30;0.70;;;17.20;99.30;;;;;;5033499;28;20017;-82
2021/05/16 06:24:06;;;;;;;2.07;0.70;;;17.30;99.70;;;;;;5033377;28;20674;-82
2021/05/16 06:26:36;;;;;;;1.17;0.63;;;17.40;99.90;;;;;;5033447;28;20282;-81
2021/05/16 06:29:03;;;;;;;3.25;0.77;;;17.40;99.50;;;;;;5033273;28;20064;-81
2021/05/16 06:31:29;;;;;;;2.42;1.05;;;17.50;99.90;;;;;;5033307;28;20128;-82
2021/05/16 06:33:55;;;;;;;1.98;0.80;;;17.50;99.30;;;;;;5033272;28;20025;-82
2021/05/16 06:36:21;;;;;;;0.85;0.80;;;17.60;99.60;;;;;;5033133;28;20120;-81
2021/05/16 06:38:47;;;;;;;1.00;0.60;;;17.70;99.90;;;;;;5015787;28;20402;-82
2021/05/16 06:41:14;;;;;;;3.28;1.00;;;17.70;99.40;;;;;;5032996;28;20111;-82
2021/05/16 06:43:40;;;;;;;3.40;0.67;;;17.80;99.30;;;;;;5033388;28;20469;-81
2021/05/16 06:46:06;;;;;;;6.03;1.00;;;17.90;98.80;;;;;;5032863;28;20362;-82
2021/05/16 06:48:33;;;;;;;2.28;0.88;;;17.90;98.60;;;;;;5032785;28;20056;-82
2021/05/16 06:50:59;;;;;;;2.20;0.73;;;17.90;97.20;;;;;;5033164;28;20030;-81
2021/05/16 06:53:25;;;;;;;1.63;0.82;;;18.00;97.90;;;;;;5015391;28;20029;-81
2021/05/16 06:55:51;;;;;;;3.43;1.17;;;18.00;97.90;;;;;;5032888;28;20021;-81
2021/05/16 06:58:17;;;;;;;4.32;1.10;;;18.10;97.80;;;;;;5032804;28;20045;-82
2021/05/16 07:00:43;;;;;;;5.47;1.23;;;18.10;96.40;;;;;;5032927;28;20091;-81
2021/05/16 07:03:09;;;;;;;3.67;1.07;;;18.20;96.00;;;;;;5032912;28;20035;-82
2021/05/16 07:05:35;;;;;;;3.77;1.37;;;18.30;96.20;;;;;;5032853;28;20760;-81
2021/05/16 07:08:00;;;;;;;5.22;1.38;;;18.30;96.30;;;;;;5014986;28;20322;-81
2021/05/16 07:10:26;;;;;;;2.15;1.25;;;18.40;95.90;;;;;;5032032;28;20061;-83
2021/05/16 07:12:52;;;;;;;2.25;1.00;;;18.50;96.00;;;;;;5032704;28;20040;-82
2021/05/16 07:15:18;;;;;;;2.60;0.97;;;18.60;95.00;;;;;;5032699;28;20544;-82
2021/05/16 07:17:45;;;;;;;2.03;0.50;;;18.60;94.50;;;;;;5014944;28;20268;-81
2021/05/16 07:20:11;;;;;;;2.38;0.73;;;18.70;93.20;;;;;;5032386;28;20268;-81
2021/05/16 07:22:37;;;;;;;4.80;1.17;;;18.70;93.20;;;;;;5032722;28;20480;-82
2021/05/16 07:25:04;;;;;;;2.35;1.00;;;18.70;94.50;;;;;;5033614;28;20030;-82
2021/05/16 07:27:31;;;;;;;1.90;0.73;;;18.80;93.40;;;;;;5051034;28;20041;-83
2021/05/16 07:29:56;;;;;;;3.65;0.55;;;18.90;93.30;;;;;;5032508;28;20032;-81
2021/05/16 07:32:22;;;;;;;2.57;0.70;;;18.90;93.00;;;;;;5032353;28;20035;-83
2021/05/16 07:34:48;;;;;;;1.92;1.00;;;19.00;92.80;;;;;;5032367;28;20278;-82
2021/05/16 07:37:14;;;;;;;1.67;0.82;;;19.00;91.90;;;;;;5032454;28;20022;-81
2021/05/16 07:39:40;;;;;;;2.78;0.80;;;19.10;91.70;;;;;;5032417;28;20037;-82
2021/05/16 07:42:07;;;;;;;4.72;0.93;;;19.20;91.90;;;;;;5032224;28;20095;-82
2021/05/16 07:44:33;;;;;;;1.15;0.68;;;19.30;92.10;;;;;;5032398;28;20022;-81
2021/05/16 07:46:59;;;;;;;1.90;0.40;;;19.40;91.60;;;;;;5032357;28;20029;-82
2021/05/16 07:49:25;;;;;;;1.38;0.70;;;19.40;92.50;;;;;;5032154;28;20467;-81
2021/05/16 07:51:51;;;;;;;1.13;0.40;;;19.50;91.60;;;;;;5032244;28;20032;-82
2021/05/16 07:54:17;;;;;;;1.70;0.50;;;19.50;91.30;;;;;;5032320;28;20025;-81
2021/05/16 07:56:43;;;;;;;6.57;0.80;;;19.50;91.00;;;;;;5032261;28;20030;-82
2021/05/16 07:59:09;;;;;;;2.30;0.63;;;19.50;91.40;;;;;;5032420;28;20505;-82
2021/05/16 08:01:34;;;;;;;1.63;0.57;;;19.50;90.80;;;;;;5032152;28;20025;-82
2021/05/16 08:04:00;;;;;;;4.17;0.93;;;19.60;90.30;;;;;;5032073;28;20106;-82
2021/05/16 08:06:26;;;;;;;2.20;0.50;;;19.70;90.50;;;;;;5032175;28;20351;-82
2021/05/16 08:08:52;;;;;;;2.13;0.50;;;19.70;89.90;;;;;;5032005;28;20053;-82
2021/05/16 08:11:18;;;;;;;2.47;0.70;;;19.70;89.10;;;;;;5014444;28;20033;-82
2021/05/16 08:13:44;;;;;;;2.28;0.45;;;19.70;91.40;;;;;;5032270;28;20675;-82
2021/05/16 08:16:10;;;;;;;0.50;0.43;;;19.80;90.60;;;;;;5014267;28;20044;-82
2021/05/16 08:18:36;;;;;;;4.10;0.63;;;19.90;90.60;;;;;;5014583;28;20033;-82
2021/05/16 08:21:02;;;;;;;2.07;0.77;;;19.90;89.10;;;;;;5032105;28;20025;-81
2021/05/16 08:23:28;;;;;;;1.95;0.57;;;19.90;89.30;;;;;;5035462;28;20025;-82
2021/05/16 08:25:53;;;;;;;1.40;0.33;;;20.00;89.80;;;;;;5035624;28;20017;-82
2021/05/16 08:28:19;;;;;;;3.77;1.00;;;20.00;87.30;;;;;;5017665;28;20045;-82
2021/05/16 08:30:46;;;;;;;1.98;0.50;;;20.10;90.00;;;;;;5035523;28;20033;-82
2021/05/16 08:33:12;;;;;;;0.95;0.50;;;20.10;88.30;;;;;;5035424;28;20224;-82
2021/05/16 08:35:38;;;;;;;1.20;0.50;;;20.10;88.20;;;;;;5035698;28;20156;-82
2021/05/16 08:38:04;;;;;;;3.28;0.85;;;20.20;88.90;;;;;;5042396;28;20029;-80
2021/05/16 08:40:30;;;;;;;2.55;0.40;;;20.20;88.10;;;;;;5047243;28;20129;-81
2021/05/16 08:42:59;;;;;;;3.05;0.70;;;20.30;88.30;;;;;;5035515;28;20029;-80
2021/05/16 08:45:25;;;;;;;1.48;0.60;;;20.50;86.90;;;;;;5035442;28;20026;-81
2021/05/16 08:47:51;;;;;;;2.17;0.90;;;20.60;87.70;;;;;;5035222;28;20025;-81
2021/05/16 08:50:19;;;;;;;5.38;1.15;;;20.60;87.10;;;;;;5035314;28;20072;-81
2021/05/16 08:52:45;;;;;;;0.90;0.60;;;20.70;85.80;;;;;;5035356;28;20032;-81
2021/05/16 08:55:14;;;;;;;0.32;0.20;;;20.60;84.00;;;;;;5035062;28;20057;-81
2021/05/16 08:57:41;;;;;;;4.85;0.85;;;20.60;84.20;;;;;;5035042;28;20018;-80
2021/05/16 09:00:21;;;;;;;1.80;0.60;;;20.70;83.80;;;;;;5034984;28;20037;-81
2021/05/16 09:03:10;;;;;;;0.60;0.30;;;20.90;82.90;;;;;;5017347;28;20040;-81
2021/05/16 09:05:39;;;;;;;2.58;0.88;;;21.00;81.60;;;;;;5017055;28;20041;-80
2021/05/16 09:08:13;;;;;;;2.20;0.40;;;20.90;82.50;;;;;;5034562;28;20050;-80
2021/05/16 09:10:42;;;;;;;0.73;0.40;;;21.00;82.90;;;;;;5034784;28;20044;-80
2021/05/16 09:13:15;;;;;;;3.83;0.70;;;21.00;81.60;;;;;;5016825;28;20099;-80
2021/05/16 09:15:42;;;;;;;1.48;0.68;;;21.10;84.00;;;;;;5034649;28;20029;-80
2021/05/16 09:18:08;;;;;;;0.95;0.68;;;21.30;84.00;;;;;;5034701;28;20112;-80
2021/05/16 09:20:34;;;;;;;2.87;0.70;;;21.20;81.50;;;;;;5034640;28;20053;-79
2021/05/16 09:23:00;;;;;;;0.90;0.70;;;21.00;81.40;;;;;;5034804;28;20265;-81
2021/05/16 09:25:30;;;;;;;0.60;0.43;;;21.20;83.00;;;;;;5034450;28;20040;-81
2021/05/16 09:28:11;;;;;;;4.00;0.60;;;21.40;80.60;;;;;;5034335;28;20052;-79
2021/05/16 09:30:39;;;;;;;1.50;0.60;;;21.70;80.40;;;;;;5034441;28;20030;-82
2021/05/16 09:33:13;;;;;;;1.48;0.50;;;21.70;79.60;;;;;;5034038;28;20037;-81
2021/05/16 09:35:45;;;;;;;0.98;0.40;;;21.60;80.10;;;;;;5034384;28;20033;-79
2021/05/16 09:38:19;;;;;;;1.58;0.47;;;21.80;80.40;;;;;;5034288;28;20029;-80
2021/05/16 09:40:58;;;;;;;2.38;0.70;;;22.10;78.90;;;;;;5016728;28;20030;-82
2021/05/16 09:43:31;;;;;;;1.52;0.88;;;22.30;77.00;;;;;;5034159;28;20037;-80
2021/05/16 09:46:05;;;;;;;2.63;1.17;;;22.30;78.40;;;;;;5034171;28;20029;-82
2021/05/16 09:48:44;;;;;;;0.80;0.50;;;22.40;78.40;;;;;;5034500;28;20045;-81
2021/05/16 09:51:25;;;;;;;2.33;0.80;;;22.50;76.30;;;;;;5051615;28;20018;-82
2021/05/16 09:53:54;;;;;;;1.48;0.63;;;22.50;77.10;;;;;;5016555;28;20029;-82
2021/05/16 09:56:23;;;;;;;0.77;0.40;;;22.60;77.20;;;;;;5034046;28;20025;-82
2021/05/16 09:58:51;;;;;;;1.13;1.02;;;22.80;76.40;;;;;;5033919;28;20025;-81
2021/05/16 10:01:20;;;;;;;2.00;0.70;;;23.00;76.70;;;;;;5034009;28;20026;-82
2021/05/16 10:03:49;;;;;;;0.90;0.50;;;23.20;75.60;;;;;;5016204;28;20041;-80
2021/05/16 10:06:20;;;;;;;1.83;0.77;;;23.50;74.70;;;;;;5033783;28;20021;-81
2021/05/16 10:08:50;;;;;;;2.28;0.70;;;23.60;76.00;;;;;;5033525;28;20052;-81
2021/05/16 10:11:27;;;;;;;2.65;1.05;;;23.50;75.30;;;;;;5033647;28;20048;-81
2021/05/16 10:14:02;;;;;;;1.60;0.57;;;23.60;73.90;;;;;;5033792;28;20072;-82
2021/05/16 10:16:44;;;;;;;1.85;0.90;;;23.40;73.40;;;;;;5033718;28;20079;-82
2021/05/16 10:19:17;;;;;;;2.85;0.85;;;23.20;73.90;;;;;;5033449;28;20036;-82
2021/05/16 10:21:43;;;;;;;1.52;0.52;;;23.10;74.00;;;;;;5033652;28;20494;-82
2021/05/16 10:24:14;;;;;;;0.93;0.70;;;23.40;75.20;;;;;;5033366;28;20060;-78
2021/05/16 10:26:42;;;;;;;2.22;0.47;;;23.80;73.50;;;;;;5033388;28;20035;-79
2021/05/16 10:29:10;;;;;;;2.58;0.90;;;23.70;72.40;;;;;;5033258;28;20100;-81
2021/05/16 10:31:55;;;;;;;1.67;0.80;;;23.70;72.70;;;;;;5033321;28;20017;-82
2021/05/16 10:34:26;;;;;;;0.75;0.60;;;24.10;72.80;;;;;;5033169;28;20030;-81
2021/05/16 10:37:02;;;;;;;4.10;0.93;;;24.40;71.20;;;;;;5033336;28;20108;-82
2021/05/16 10:39:43;;;;;;;2.53;0.88;;;24.30;72.30;;;;;;5033310;28;20112;-81
2021/05/16 10:42:13;;;;;;;1.88;0.80;;;24.60;71.00;;;;;;5033294;28;20112;-80
2021/05/16 10:44:53;;;;;;;3.17;0.70;;;24.90;71.70;;;;;;5032842;28;20036;-78
2021/05/16 10:47:48;;;;;;;2.83;1.02;;;25.00;71.00;;;;;;5032718;28;20084;-78
2021/05/16 10:50:36;;;;;;;3.08;0.82;;;25.30;71.40;;;;;;5032992;28;20563;-80
2021/05/16 10:53:08;;;;;;;0.65;0.50;;;25.00;70.30;;;;;;5032966;28;20025;-81
2021/05/16 10:55:37;;;;;;;5.05;0.80;;;24.90;71.50;;;;;;5033251;28;20037;-82
2021/05/16 10:58:04;;;;;;;0.60;0.50;;;24.40;71.50;;;;;;5032854;28;20029;-83
2021/05/16 11:00:39;;;;;;;2.28;0.90;;;24.30;71.90;;;;;;5033304;28;20104;-82
2021/05/16 11:03:10;;;;;;;2.00;0.57;;;24.20;72.00;;;;;;5050709;28;20114;-83
2021/05/16 11:08:09;;;;;;;1.83;0.93;;;25.00;71.90;;;;;;5032486;28;20045;-81
2021/05/16 11:10:39;;;;;;;2.00;0.60;;;25.20;71.00;;;;;;5032795;28;20048;-83
2021/05/16 11:13:12;;;;;;;1.83;0.57;;;25.30;70.00;;;;;;5032643;28;20036;-82
2021/05/16 11:15:46;;;;;;;1.50;0.60;;;25.40;70.50;;;;;;5032845;28;20026;-82
2021/05/16 11:18:16;;;;;;;0.52;0.50;;;25.50;70.30;;;;;;5032514;28;20028;-81
2021/05/16 11:20:43;;;;;;;3.20;0.88;;;25.50;70.30;;;;;;5032681;28;20057;-82
2021/05/16 11:23:09;;;;;;;0.73;0.40;;;25.10;68.40;;;;;;5032605;28;20533;-82
2021/05/16 11:25:35;;;;;;;2.42;0.70;;;25.10;69.10;;;;;;5032595;28;20026;-82
2021/05/16 11:28:10;;;;;;;1.77;0.90;;;25.20;70.80;;;;;;5032516;28;20039;-80
2021/05/16 11:30:36;;;;;;;1.85;0.90;;;25.50;70.00;;;;;;5032375;28;20029;-83
2021/05/16 11:33:02;;;;;;;9.90;1.33;;;24.90;69.60;;;;;;5032430;28;20386;-83
2021/05/16 11:35:28;;;;;;;1.83;1.25;;;24.40;69.70;;;;;;5032662;28;20133;-81
2021/05/16 11:37:58;;;;;;;2.60;0.70;;;24.60;70.40;;;;;;5032551;28;20100;-82
2021/05/16 11:40:32;;;;;;;1.73;0.52;;;24.60;70.30;;;;;;5032278;28;20028;-82
2021/05/16 11:43:05;;;;;;;0.90;0.55;;;24.90;71.30;;;;;;5032597;28;20038;-81
2021/05/16 11:45:37;;;;;;;1.65;0.90;;;24.80;71.20;;;;;;5032442;28;20048;-82
2021/05/16 11:48:04;;;;;;;3.15;0.70;;;25.00;70.90;;;;;;5032414;28;20037;-82
2021/05/16 11:50:44;;;;;;;2.50;0.70;;;25.50;70.90;;;;;;5032148;28;20057;-83
2021/05/16 11:53:11;;;;;;;1.08;0.90;;;25.20;71.30;;;;;;5032166;28;20033;-81
2021/05/16 11:55:38;;;;;;;2.83;0.73;;;25.40;70.30;;;;;;5032425;28;20033;-83
2021/05/16 11:58:07;;;;;;;1.80;0.57;;;25.00;70.20;;;;;;5035249;28;20072;-83
2021/05/16 12:00:33;;;;;;;1.60;0.57;;;25.30;71.30;;;;;;5036236;28;20049;-82
2021/05/16 12:03:13;;;;;;;3.35;0.90;;;24.90;69.30;;;;;;5018553;28;20063;-81
2021/05/16 12:05:41;;;;;;;0.63;0.52;;;24.80;71.30;;;;;;5036271;28;20030;-83
2021/05/16 12:08:33;;;;;;;2.90;0.85;;;25.10;70.90;;;;;;5035762;28;20057;-81
2021/05/16 12:11:11;;;;;;;1.60;0.80;;;25.50;69.80;;;;;;5033352;28;20046;-80
2021/05/16 12:13:38;;;;;;;2.17;0.80;;;25.80;69.30;;;;;;5029077;28;20042;-81
2021/05/16 12:16:23;;;;;;;1.33;0.55;;;26.00;68.70;;;;;;5042118;28;20025;-82
2021/05/16 12:18:53;;;;;;;1.45;0.82;;;26.20;68.90;;;;;;5036168;28;20051;-78
2021/05/16 12:21:20;;;;;;;2.42;0.82;;;26.30;68.10;;;;;;5018195;28;20619;-82
2021/05/16 12:23:54;;;;;;;2.17;0.90;;;26.50;68.50;;;;;;5035913;28;20026;-83
2021/05/16 12:26:22;;;;;;;1.20;0.60;;;26.80;68.10;;;;;;5035813;28;20036;-79
2021/05/16 12:28:49;;;;;;;3.22;0.75;;;26.00;68.20;;;;;;5035730;28;20033;-82
2021/05/16 12:31:16;;;;;;;3.45;0.80;;;26.40;67.90;;;;;;5017918;28;20037;-79
2021/05/16 12:33:43;;;;;;;2.17;0.80;;;26.00;67.80;;;;;;5035616;28;20520;-83
2021/05/16 12:36:09;;;;;;;1.17;0.90;;;25.70;68.30;;;;;;5035355;28;20200;-82
2021/05/16 12:38:50;;;;;;;4.05;1.02;;;25.30;67.60;;;;;;5035544;28;20037;-79
2021/05/16 12:41:19;;;;;;;1.77;1.00;;;25.40;69.20;;;;;;5035364;28;20055;-82
2021/05/16 12:44:22;;;;;;;3.53;0.90;;;25.20;70.40;;;;;;5035599;28;20029;-81
2021/05/16 12:46:49;;;;;;;3.40;0.80;;;25.20;69.70;;;;;;5035453;28;20575;-82
2021/05/16 12:49:23;;;;;;;1.65;0.70;;;25.10;69.30;;;;;;5035104;28;20811;-82
2021/05/16 12:52:07;;;;;;;1.20;0.90;;;24.90;69.60;;;;;;5035193;28;20026;-82
2021/05/16 12:54:37;;;;;;;2.88;1.33;;;25.50;69.70;;;;;;5035378;28;20021;-82